Airfield :
LOGIN :

Register | Disclaimer

   EN    FR    IT 

 










Legend :    VFR   Marginal VFR   IFR   Intensive IFR   Very Intensive IFR
Visi :
Ceiling :
>= 8 km
>= 3000ft
5 to 8 km
1000 to 3000 ft
1500m to 5 km
500 to 1000 ft
800 to 1500m
200 to 500 ft
< 800m
< 200 ft
Symbols :   Thunderstorms  Fog  Heavy snow  Heavy precipitations  Wind > 20 kt
SIGMETs :     Misc.  Thunderstorms  Icing  Turbulence  Mountain Waves  Volcanic Ashes






- Airport Elevation : 1411 ft
- IATA code : SZG


LOWS - Salzburg

CURRENT METAR :
  • 030750Z AUTO 15003KT 100V190 9999 SCT130 23/18 Q1021 NOSIG

EXPIRED METARs :
  • 030720Z AUTO 13006KT 100V170 9999 SCT130 21/17 Q1021 NOSIG
  • 030650Z AUTO 15007KT 9999 FEW110 SCT130 21/17 Q1021 NOSIG
  • 030620Z AUTO 15006KT 9999 FEW100 SCT120 20/17 Q1021 NOSIG
  • 030550Z AUTO 15004KT 100V200 9999 FEW100 SCT120 19/16 Q1021 NOSIG
  • 030520Z AUTO 16004KT 9999 BKN100 18/16 Q1021 NOSIG

TAF TAF LOWS
Valid from the 03 at 06:00 until the 04 at 06:00 UTC


030515Z 0306/0406 15005KT 9999 FEW070 TX29/0316Z TN18/0404Z
BECMG 0307/0309 35008KT
BECMG 0317/0319 15005KT



MET'MAP, your aeronautical weather chart ! - Copyright ORBIFLY December 2007 - Disclaimer

ORBIFLY MET'MAP TEAM :

Programming & Development : Alexandra Zaïnal
Original concept : Baudouin d'Aumeries
Technical & hardware support : Manuel Goepfert
Assistance : Marc-Olivier Méhu




SOURCES & CREDITS :

   NOAA